sensor_id;sensor_type;location;lat;lon;timestamp;temperature;humidity
11239;DHT22;5677;48.488;13.436;2022-11-20T00:01:12;9.80;56.10
11239;DHT22;5677;48.488;13.436;2022-11-20T00:03:39;9.80;56.80
11239;DHT22;5677;48.488;13.436;2022-11-20T00:06:09;9.80;56.20
11239;DHT22;5677;48.488;13.436;2022-11-20T00:08:36;9.80;56.30
11239;DHT22;5677;48.488;13.436;2022-11-20T00:11:04;9.80;56.40
11239;DHT22;5677;48.488;13.436;2022-11-20T00:13:31;9.80;56.60
11239;DHT22;5677;48.488;13.436;2022-11-20T00:16:00;9.80;56.60
11239;DHT22;5677;48.488;13.436;2022-11-20T00:18:27;9.80;56.70
11239;DHT22;5677;48.488;13.436;2022-11-20T00:21:00;9.80;56.90
11239;DHT22;5677;48.488;13.436;2022-11-20T00:23:28;9.80;57.00
11239;DHT22;5677;48.488;13.436;2022-11-20T00:25:55;9.80;57.10
11239;DHT22;5677;48.488;13.436;2022-11-20T00:28:22;9.80;57.00
11239;DHT22;5677;48.488;13.436;2022-11-20T00:30:49;9.70;57.00
11239;DHT22;5677;48.488;13.436;2022-11-20T00:33:16;9.80;57.10
11239;DHT22;5677;48.488;13.436;2022-11-20T00:35:43;9.80;57.20
11239;DHT22;5677;48.488;13.436;2022-11-20T00:38:09;9.80;57.40
11239;DHT22;5677;48.488;13.436;2022-11-20T00:40:37;9.70;57.50
11239;DHT22;5677;48.488;13.436;2022-11-20T00:43:04;9.70;57.60
11239;DHT22;5677;48.488;13.436;2022-11-20T00:45:31;9.70;57.70
11239;DHT22;5677;48.488;13.436;2022-11-20T00:47:58;9.70;57.80
11239;DHT22;5677;48.488;13.436;2022-11-20T00:50:25;9.80;58.00
11239;DHT22;5677;48.488;13.436;2022-11-20T00:52:51;9.70;58.10
11239;DHT22;5677;48.488;13.436;2022-11-20T00:55:18;9.70;58.20
11239;DHT22;5677;48.488;13.436;2022-11-20T00:57:46;9.70;58.20
11239;DHT22;5677;48.488;13.436;2022-11-20T01:00:13;9.70;58.30
11239;DHT22;5677;48.488;13.436;2022-11-20T01:02:40;9.70;58.40
11239;DHT22;5677;48.488;13.436;2022-11-20T01:05:07;9.70;58.40
11239;DHT22;5677;48.488;13.436;2022-11-20T01:07:34;9.70;58.50
11239;DHT22;5677;48.488;13.436;2022-11-20T01:10:01;9.70;58.60
11239;DHT22;5677;48.488;13.436;2022-11-20T01:12:28;9.70;58.70
11239;DHT22;5677;48.488;13.436;2022-11-20T01:14:56;9.70;58.90
11239;DHT22;5677;48.488;13.436;2022-11-20T01:17:23;9.70;59.20
11239;DHT22;5677;48.488;13.436;2022-11-20T01:19:50;9.70;59.30
11239;DHT22;5677;48.488;13.436;2022-11-20T01:22:17;9.70;59.20
11239;DHT22;5677;48.488;13.436;2022-11-20T01:24:44;9.70;59.40
11239;DHT22;5677;48.488;13.436;2022-11-20T01:27:10;9.70;59.30
11239;DHT22;5677;48.488;13.436;2022-11-20T01:29:37;9.70;59.50
11239;DHT22;5677;48.488;13.436;2022-11-20T01:32:05;9.70;59.50
11239;DHT22;5677;48.488;13.436;2022-11-20T01:34:32;9.70;59.60
11239;DHT22;5677;48.488;13.436;2022-11-20T01:36:59;9.70;59.80
11239;DHT22;5677;48.488;13.436;2022-11-20T01:39:26;9.70;59.80
11239;DHT22;5677;48.488;13.436;2022-11-20T01:41:54;9.70;59.90
11239;DHT22;5677;48.488;13.436;2022-11-20T01:44:52;9.70;60.80
11239;DHT22;5677;48.488;13.436;2022-11-20T01:47:31;9.70;60.40
11239;DHT22;5677;48.488;13.436;2022-11-20T01:50:03;9.70;60.60
11239;DHT22;5677;48.488;13.436;2022-11-20T01:52:36;9.70;60.80
11239;DHT22;5677;48.488;13.436;2022-11-20T01:55:07;9.70;60.90
11239;DHT22;5677;48.488;13.436;2022-11-20T01:57:36;9.70;61.10
11239;DHT22;5677;48.488;13.436;2022-11-20T02:00:07;9.70;61.80
11239;DHT22;5677;48.488;13.436;2022-11-20T02:02:36;9.70;63.00
11239;DHT22;5677;48.488;13.436;2022-11-20T02:05:14;9.70;64.30
11239;DHT22;5677;48.488;13.436;2022-11-20T02:07:43;9.70;65.70
11239;DHT22;5677;48.488;13.436;2022-11-20T02:10:11;9.70;66.90
11239;DHT22;5677;48.488;13.436;2022-11-20T02:12:38;9.70;65.90
11239;DHT22;5677;48.488;13.436;2022-11-20T02:15:22;9.70;69.20
11239;DHT22;5677;48.488;13.436;2022-11-20T02:17:51;9.70;66.20
11239;DHT22;5677;48.488;13.436;2022-11-20T02:20:18;9.70;64.80
11239;DHT22;5677;48.488;13.436;2022-11-20T02:22:50;9.70;64.80
11239;DHT22;5677;48.488;13.436;2022-11-20T02:25:21;9.70;65.30
11239;DHT22;5677;48.488;13.436;2022-11-20T02:27:48;9.70;66.10
11239;DHT22;5677;48.488;13.436;2022-11-20T02:30:15;9.70;66.50
11239;DHT22;5677;48.488;13.436;2022-11-20T02:32:43;9.70;66.70
11239;DHT22;5677;48.488;13.436;2022-11-20T02:35:41;9.70;67.00
11239;DHT22;5677;48.488;13.436;2022-11-20T02:38:08;9.70;66.70
11239;DHT22;5677;48.488;13.436;2022-11-20T02:40:37;9.70;67.40
11239;DHT22;5677;48.488;13.436;2022-11-20T02:43:04;9.70;67.20
11239;DHT22;5677;48.488;13.436;2022-11-20T02:45:30;9.70;66.80
11239;DHT22;5677;48.488;13.436;2022-11-20T02:47:57;9.70;65.30
11239;DHT22;5677;48.488;13.436;2022-11-20T02:50:24;9.70;65.00
11239;DHT22;5677;48.488;13.436;2022-11-20T02:52:51;9.70;65.80
11239;DHT22;5677;48.488;13.436;2022-11-20T02:55:18;9.70;64.50
11239;DHT22;5677;48.488;13.436;2022-11-20T02:57:46;9.70;64.10
11239;DHT22;5677;48.488;13.436;2022-11-20T03:00:14;9.70;64.60
11239;DHT22;5677;48.488;13.436;2022-11-20T03:02:40;9.70;64.30
11239;DHT22;5677;48.488;13.436;2022-11-20T03:05:07;9.70;64.50
11239;DHT22;5677;48.488;13.436;2022-11-20T03:07:34;9.70;64.50
11239;DHT22;5677;48.488;13.436;2022-11-20T03:10:01;9.70;64.90
11239;DHT22;5677;48.488;13.436;2022-11-20T03:12:28;9.70;64.60
11239;DHT22;5677;48.488;13.436;2022-11-20T03:14:56;9.70;64.60
11239;DHT22;5677;48.488;13.436;2022-11-20T03:17:23;9.70;64.50
11239;DHT22;5677;48.488;13.436;2022-11-20T03:19:50;9.70;64.90
11239;DHT22;5677;48.488;13.436;2022-11-20T03:22:17;9.70;64.70
11239;DHT22;5677;48.488;13.436;2022-11-20T03:24:43;9.70;64.40
11239;DHT22;5677;48.488;13.436;2022-11-20T03:27:10;9.70;65.10
11239;DHT22;5677;48.488;13.436;2022-11-20T03:29:37;9.70;66.60
11239;DHT22;5677;48.488;13.436;2022-11-20T03:32:05;9.70;66.70
11239;DHT22;5677;48.488;13.436;2022-11-20T03:34:33;9.70;67.00
11239;DHT22;5677;48.488;13.436;2022-11-20T03:37:00;9.70;65.50
11239;DHT22;5677;48.488;13.436;2022-11-20T03:39:27;9.70;66.10
11239;DHT22;5677;48.488;13.436;2022-11-20T03:41:53;9.70;64.90
11239;DHT22;5677;48.488;13.436;2022-11-20T03:44:21;9.70;65.00
11239;DHT22;5677;48.488;13.436;2022-11-20T03:46:47;9.70;65.00
11239;DHT22;5677;48.488;13.436;2022-11-20T03:49:16;9.70;65.10
11239;DHT22;5677;48.488;13.436;2022-11-20T03:51:42;9.70;65.50
11239;DHT22;5677;48.488;13.436;2022-11-20T03:54:09;9.70;65.50
11239;DHT22;5677;48.488;13.436;2022-11-20T03:56:37;9.70;65.90
11239;DHT22;5677;48.488;13.436;2022-11-20T03:59:05;9.70;65.50
11239;DHT22;5677;48.488;13.436;2022-11-20T04:01:34;9.70;65.70
11239;DHT22;5677;48.488;13.436;2022-11-20T04:04:01;9.70;65.90
11239;DHT22;5677;48.488;13.436;2022-11-20T04:06:32;9.70;65.90
11239;DHT22;5677;48.488;13.436;2022-11-20T04:08:59;9.70;65.60
11239;DHT22;5677;48.488;13.436;2022-11-20T04:11:28;9.70;65.50
11239;DHT22;5677;48.488;13.436;2022-11-20T04:13:56;9.70;65.30
11239;DHT22;5677;48.488;13.436;2022-11-20T04:16:25;9.70;65.70
11239;DHT22;5677;48.488;13.436;2022-11-20T04:18:53;9.70;65.70
11239;DHT22;5677;48.488;13.436;2022-11-20T04:21:20;9.70;65.50
11239;DHT22;5677;48.488;13.436;2022-11-20T04:23:48;9.70;65.70
11239;DHT22;5677;48.488;13.436;2022-11-20T04:26:16;9.70;65.50
11239;DHT22;5677;48.488;13.436;2022-11-20T04:28:42;9.70;65.40
11239;DHT22;5677;48.488;13.436;2022-11-20T04:31:11;9.70;65.30
11239;DHT22;5677;48.488;13.436;2022-11-20T04:33:38;9.70;65.50
11239;DHT22;5677;48.488;13.436;2022-11-20T04:36:07;9.70;65.60
11239;DHT22;5677;48.488;13.436;2022-11-20T04:38:36;9.70;65.70
11239;DHT22;5677;48.488;13.436;2022-11-20T04:41:06;9.70;66.20
11239;DHT22;5677;48.488;13.436;2022-11-20T04:43:33;9.70;65.80
11239;DHT22;5677;48.488;13.436;2022-11-20T04:46:01;9.70;65.90
11239;DHT22;5677;48.488;13.436;2022-11-20T04:48:28;9.70;65.90
11239;DHT22;5677;48.488;13.436;2022-11-20T04:50:55;9.70;66.10
11239;DHT22;5677;48.488;13.436;2022-11-20T04:53:22;9.70;65.90
11239;DHT22;5677;48.488;13.436;2022-11-20T04:55:49;9.70;66.10
11239;DHT22;5677;48.488;13.436;2022-11-20T04:58:17;9.70;66.00
11239;DHT22;5677;48.488;13.436;2022-11-20T05:00:44;9.60;66.00
11239;DHT22;5677;48.488;13.436;2022-11-20T05:03:11;9.70;66.60
11239;DHT22;5677;48.488;13.436;2022-11-20T05:05:38;9.60;66.40
11239;DHT22;5677;48.488;13.436;2022-11-20T05:08:04;9.60;66.60
11239;DHT22;5677;48.488;13.436;2022-11-20T05:10:31;9.60;67.40
11239;DHT22;5677;48.488;13.436;2022-11-20T05:12:58;9.60;66.70
11239;DHT22;5677;48.488;13.436;2022-11-20T05:15:26;9.70;67.00
11239;DHT22;5677;48.488;13.436;2022-11-20T05:17:53;9.70;66.50
11239;DHT22;5677;48.488;13.436;2022-11-20T05:20:20;9.70;66.70
11239;DHT22;5677;48.488;13.436;2022-11-20T05:22:47;9.60;66.10
11239;DHT22;5677;48.488;13.436;2022-11-20T05:25:14;9.70;65.80
11239;DHT22;5677;48.488;13.436;2022-11-20T05:27:41;9.60;65.60
11239;DHT22;5677;48.488;13.436;2022-11-20T05:30:09;9.60;65.50
11239;DHT22;5677;48.488;13.436;2022-11-20T05:32:37;9.70;65.50
11239;DHT22;5677;48.488;13.436;2022-11-20T05:35:05;9.60;65.20
11239;DHT22;5677;48.488;13.436;2022-11-20T05:37:31;9.60;65.30
11239;DHT22;5677;48.488;13.436;2022-11-20T05:39:59;9.70;65.50
11239;DHT22;5677;48.488;13.436;2022-11-20T05:42:25;9.70;65.50
11239;DHT22;5677;48.488;13.436;2022-11-20T05:44:58;9.60;65.40
11239;DHT22;5677;48.488;13.436;2022-11-20T05:47:25;9.60;65.40
11239;DHT22;5677;48.488;13.436;2022-11-20T05:49:53;9.60;65.50
11239;DHT22;5677;48.488;13.436;2022-11-20T05:52:20;9.60;66.30
11239;DHT22;5677;48.488;13.436;2022-11-20T05:54:47;9.60;65.50
11239;DHT22;5677;48.488;13.436;2022-11-20T05:57:14;9.60;65.70
11239;DHT22;5677;48.488;13.436;2022-11-20T05:59:41;9.60;65.70
11239;DHT22;5677;48.488;13.436;2022-11-20T06:02:08;9.60;65.80
11239;DHT22;5677;48.488;13.436;2022-11-20T06:04:35;9.60;65.80
11239;DHT22;5677;48.488;13.436;2022-11-20T06:07:04;9.60;65.60
11239;DHT22;5677;48.488;13.436;2022-11-20T06:09:32;9.60;65.50
11239;DHT22;5677;48.488;13.436;2022-11-20T06:11:58;9.60;65.30
11239;DHT22;5677;48.488;13.436;2022-11-20T06:14:25;9.60;65.30
11239;DHT22;5677;48.488;13.436;2022-11-20T06:16:52;9.60;65.30
11239;DHT22;5677;48.488;13.436;2022-11-20T06:19:19;9.60;65.40
11239;DHT22;5677;48.488;13.436;2022-11-20T06:21:47;9.60;65.30
11239;DHT22;5677;48.488;13.436;2022-11-20T06:24:16;9.60;65.10
11239;DHT22;5677;48.488;13.436;2022-11-20T06:26:42;9.60;65.00
11239;DHT22;5677;48.488;13.436;2022-11-20T06:29:10;9.60;65.00
11239;DHT22;5677;48.488;13.436;2022-11-20T06:31:36;9.60;65.10
11239;DHT22;5677;48.488;13.436;2022-11-20T06:34:04;9.60;65.20
11239;DHT22;5677;48.488;13.436;2022-11-20T06:36:32;9.60;65.30
11239;DHT22;5677;48.488;13.436;2022-11-20T06:38:59;9.60;65.30
11239;DHT22;5677;48.488;13.436;2022-11-20T06:41:27;9.60;65.20
11239;DHT22;5677;48.488;13.436;2022-11-20T06:43:54;9.60;65.20
11239;DHT22;5677;48.488;13.436;2022-11-20T06:46:21;9.60;65.30
11239;DHT22;5677;48.488;13.436;2022-11-20T06:48:49;9.60;65.20
11239;DHT22;5677;48.488;13.436;2022-11-20T06:51:16;9.60;65.10
11239;DHT22;5677;48.488;13.436;2022-11-20T06:53:43;9.60;65.30
11239;DHT22;5677;48.488;13.436;2022-11-20T06:56:10;9.60;65.30
11239;DHT22;5677;48.488;13.436;2022-11-20T06:58:38;9.60;65.50
11239;DHT22;5677;48.488;13.436;2022-11-20T07:01:06;9.60;65.50
11239;DHT22;5677;48.488;13.436;2022-11-20T07:03:33;9.60;65.50
11239;DHT22;5677;48.488;13.436;2022-11-20T07:06:01;9.60;65.40
11239;DHT22;5677;48.488;13.436;2022-11-20T07:08:28;9.60;65.40
11239;DHT22;5677;48.488;13.436;2022-11-20T07:10:58;9.60;65.60
11239;DHT22;5677;48.488;13.436;2022-11-20T07:13:25;9.60;65.50
11239;DHT22;5677;48.488;13.436;2022-11-20T07:15:53;9.60;65.50
11239;DHT22;5677;48.488;13.436;2022-11-20T07:18:20;9.60;65.50
11239;DHT22;5677;48.488;13.436;2022-11-20T07:20:47;9.60;65.60
11239;DHT22;5677;48.488;13.436;2022-11-20T07:23:14;9.60;65.50
11239;DHT22;5677;48.488;13.436;2022-11-20T07:25:41;9.60;65.70
11239;DHT22;5677;48.488;13.436;2022-11-20T07:28:08;9.60;65.70
11239;DHT22;5677;48.488;13.436;2022-11-20T07:30:36;9.60;65.70
11239;DHT22;5677;48.488;13.436;2022-11-20T07:33:04;9.60;65.70
11239;DHT22;5677;48.488;13.436;2022-11-20T07:35:31;9.60;65.70
11239;DHT22;5677;48.488;13.436;2022-11-20T07:37:58;9.60;65.70
11239;DHT22;5677;48.488;13.436;2022-11-20T07:40:25;9.60;65.70
11239;DHT22;5677;48.488;13.436;2022-11-20T07:42:54;9.60;65.80
11239;DHT22;5677;48.488;13.436;2022-11-20T07:45:22;9.60;65.70
11239;DHT22;5677;48.488;13.436;2022-11-20T07:47:50;9.60;65.60
11239;DHT22;5677;48.488;13.436;2022-11-20T07:50:19;9.60;65.70
11239;DHT22;5677;48.488;13.436;2022-11-20T07:52:45;9.60;65.70
11239;DHT22;5677;48.488;13.436;2022-11-20T07:55:12;9.60;66.70
11239;DHT22;5677;48.488;13.436;2022-11-20T07:57:39;9.60;65.80
11239;DHT22;5677;48.488;13.436;2022-11-20T08:00:08;9.60;66.00
11239;DHT22;5677;48.488;13.436;2022-11-20T08:02:37;9.60;66.00
11239;DHT22;5677;48.488;13.436;2022-11-20T08:05:04;9.60;65.90
11239;DHT22;5677;48.488;13.436;2022-11-20T08:07:36;9.60;65.90
11239;DHT22;5677;48.488;13.436;2022-11-20T08:10:04;9.60;65.80
11239;DHT22;5677;48.488;13.436;2022-11-20T08:12:31;9.60;66.00
11239;DHT22;5677;48.488;13.436;2022-11-20T08:15:16;9.60;65.90
11239;DHT22;5677;48.488;13.436;2022-11-20T08:17:43;9.60;65.90
11239;DHT22;5677;48.488;13.436;2022-11-20T08:20:10;9.60;65.90
11239;DHT22;5677;48.488;13.436;2022-11-20T08:22:38;9.60;66.10
11239;DHT22;5677;48.488;13.436;2022-11-20T08:25:05;9.60;66.20
11239;DHT22;5677;48.488;13.436;2022-11-20T08:27:32;9.60;66.30
11239;DHT22;5677;48.488;13.436;2022-11-20T08:29:59;9.60;66.30
11239;DHT22;5677;48.488;13.436;2022-11-20T08:32:26;9.60;66.50
11239;DHT22;5677;48.488;13.436;2022-11-20T08:34:53;9.60;66.30
11239;DHT22;5677;48.488;13.436;2022-11-20T08:37:19;9.60;66.30
11239;DHT22;5677;48.488;13.436;2022-11-20T08:39:48;9.60;66.60
11239;DHT22;5677;48.488;13.436;2022-11-20T08:42:14;9.60;66.70
11239;DHT22;5677;48.488;13.436;2022-11-20T08:44:41;9.60;66.70
11239;DHT22;5677;48.488;13.436;2022-11-20T08:47:08;9.60;66.70
11239;DHT22;5677;48.488;13.436;2022-11-20T08:49:35;9.60;66.40
11239;DHT22;5677;48.488;13.436;2022-11-20T08:52:02;9.60;66.70
11239;DHT22;5677;48.488;13.436;2022-11-20T08:54:28;9.60;66.90
11239;DHT22;5677;48.488;13.436;2022-11-20T08:56:57;9.60;66.90
11239;DHT22;5677;48.488;13.436;2022-11-20T08:59:23;9.60;66.30
11239;DHT22;5677;48.488;13.436;2022-11-20T09:01:50;9.60;66.00
11239;DHT22;5677;48.488;13.436;2022-11-20T09:04:17;9.60;65.90
11239;DHT22;5677;48.488;13.436;2022-11-20T09:06:44;9.60;65.80
11239;DHT22;5677;48.488;13.436;2022-11-20T09:09:10;9.60;65.80
11239;DHT22;5677;48.488;13.436;2022-11-20T09:11:37;9.60;65.90
11239;DHT22;5677;48.488;13.436;2022-11-20T09:14:05;9.60;66.00
11239;DHT22;5677;48.488;13.436;2022-11-20T09:16:32;9.60;65.90
11239;DHT22;5677;48.488;13.436;2022-11-20T09:18:59;9.60;65.90
11239;DHT22;5677;48.488;13.436;2022-11-20T09:21:26;9.60;65.90
11239;DHT22;5677;48.488;13.436;2022-11-20T09:23:53;9.60;65.90
11239;DHT22;5677;48.488;13.436;2022-11-20T09:26:19;9.60;65.70
11239;DHT22;5677;48.488;13.436;2022-11-20T09:28:46;9.60;65.80
11239;DHT22;5677;48.488;13.436;2022-11-20T09:31:21;9.60;65.80
11239;DHT22;5677;48.488;13.436;2022-11-20T09:33:48;9.60;65.90
11239;DHT22;5677;48.488;13.436;2022-11-20T09:36:15;9.60;65.90
11239;DHT22;5677;48.488;13.436;2022-11-20T09:38:43;9.60;65.90
11239;DHT22;5677;48.488;13.436;2022-11-20T09:41:27;9.60;65.60
11239;DHT22;5677;48.488;13.436;2022-11-20T09:44:01;9.60;65.70
11239;DHT22;5677;48.488;13.436;2022-11-20T09:46:38;9.70;65.80
11239;DHT22;5677;48.488;13.436;2022-11-20T09:49:19;9.60;65.80
11239;DHT22;5677;48.488;13.436;2022-11-20T09:51:57;9.70;65.90
11239;DHT22;5677;48.488;13.436;2022-11-20T09:54:29;9.60;65.80
11239;DHT22;5677;48.488;13.436;2022-11-20T09:57:00;9.70;66.00
11239;DHT22;5677;48.488;13.436;2022-11-20T09:59:34;9.60;66.00
11239;DHT22;5677;48.488;13.436;2022-11-20T10:02:12;9.60;65.90
11239;DHT22;5677;48.488;13.436;2022-11-20T10:04:44;9.70;65.90
11239;DHT22;5677;48.488;13.436;2022-11-20T10:07:17;9.70;65.90
11239;DHT22;5677;48.488;13.436;2022-11-20T10:09:51;9.60;65.80
11239;DHT22;5677;48.488;13.436;2022-11-20T10:12:25;9.60;65.80
11239;DHT22;5677;48.488;13.436;2022-11-20T10:15:06;9.70;66.00
11239;DHT22;5677;48.488;13.436;2022-11-20T10:17:58;9.60;66.10
11239;DHT22;5677;48.488;13.436;2022-11-20T10:20:30;9.70;66.30
11239;DHT22;5677;48.488;13.436;2022-11-20T10:23:31;9.70;66.30
11239;DHT22;5677;48.488;13.436;2022-11-20T10:26:22;9.70;66.50
11239;DHT22;5677;48.488;13.436;2022-11-20T10:29:00;9.70;64.70
11239;DHT22;5677;48.488;13.436;2022-11-20T10:31:32;9.60;64.90
11239;DHT22;5677;48.488;13.436;2022-11-20T10:34:04;9.70;65.20
11239;DHT22;5677;48.488;13.436;2022-11-20T10:36:35;9.60;65.60
11239;DHT22;5677;48.488;13.436;2022-11-20T10:39:06;9.60;66.00
11239;DHT22;5677;48.488;13.436;2022-11-20T10:41:38;9.70;66.30
11239;DHT22;5677;48.488;13.436;2022-11-20T10:44:12;9.70;66.60
11239;DHT22;5677;48.488;13.436;2022-11-20T10:46:44;9.70;64.50
11239;DHT22;5677;48.488;13.436;2022-11-20T10:49:18;9.60;64.60
11239;DHT22;5677;48.488;13.436;2022-11-20T10:51:56;9.60;64.70
11239;DHT22;5677;48.488;13.436;2022-11-20T10:54:33;9.60;64.80
11239;DHT22;5677;48.488;13.436;2022-11-20T10:57:07;9.70;65.10
11239;DHT22;5677;48.488;13.436;2022-11-20T10:59:54;9.70;65.00
11239;DHT22;5677;48.488;13.436;2022-11-20T11:02:31;9.60;65.10
11239;DHT22;5677;48.488;13.436;2022-11-20T11:05:08;9.70;65.30
11239;DHT22;5677;48.488;13.436;2022-11-20T11:07:38;9.60;65.50
11239;DHT22;5677;48.488;13.436;2022-11-20T11:12:43;9.60;66.10
11239;DHT22;5677;48.488;13.436;2022-11-20T11:15:13;9.70;66.40
11239;DHT22;5677;48.488;13.436;2022-11-20T11:17:47;9.60;66.90
11239;DHT22;5677;48.488;13.436;2022-11-20T11:20:18;9.70;65.00
11239;DHT22;5677;48.488;13.436;2022-11-20T11:22:47;9.70;65.10
11239;DHT22;5677;48.488;13.436;2022-11-20T11:25:26;9.70;65.10
11239;DHT22;5677;48.488;13.436;2022-11-20T11:27:55;9.70;65.30
11239;DHT22;5677;48.488;13.436;2022-11-20T11:30:23;9.70;66.20
11239;DHT22;5677;48.488;13.436;2022-11-20T11:33:01;9.70;66.50
11239;DHT22;5677;48.488;13.436;2022-11-20T11:35:31;9.70;64.70
11239;DHT22;5677;48.488;13.436;2022-11-20T11:38:04;9.70;64.70
11239;DHT22;5677;48.488;13.436;2022-11-20T11:40:32;9.70;65.30
11239;DHT22;5677;48.488;13.436;2022-11-20T11:43:01;9.70;65.30
11239;DHT22;5677;48.488;13.436;2022-11-20T11:45:29;9.70;66.20
11239;DHT22;5677;48.488;13.436;2022-11-20T11:47:57;9.70;66.20
11239;DHT22;5677;48.488;13.436;2022-11-20T11:50:25;9.70;64.70
11239;DHT22;5677;48.488;13.436;2022-11-20T11:53:05;9.70;64.70
11239;DHT22;5677;48.488;13.436;2022-11-20T11:55:38;9.70;65.00
11239;DHT22;5677;48.488;13.436;2022-11-20T11:58:20;9.70;65.10
11239;DHT22;5677;48.488;13.436;2022-11-20T12:00:58;9.70;65.30
11239;DHT22;5677;48.488;13.436;2022-11-20T12:03:32;9.70;66.20
11239;DHT22;5677;48.488;13.436;2022-11-20T12:06:05;9.70;66.40
11239;DHT22;5677;48.488;13.436;2022-11-20T12:08:43;9.70;66.00
11239;DHT22;5677;48.488;13.436;2022-11-20T12:11:16;9.70;64.60
11239;DHT22;5677;48.488;13.436;2022-11-20T12:13:50;9.70;64.90
11239;DHT22;5677;48.488;13.436;2022-11-20T12:16:20;9.70;65.00
11239;DHT22;5677;48.488;13.436;2022-11-20T12:18:49;9.70;65.30
11239;DHT22;5677;48.488;13.436;2022-11-20T12:21:25;9.70;65.20
11239;DHT22;5677;48.488;13.436;2022-11-20T12:24:06;9.70;65.50
11239;DHT22;5677;48.488;13.436;2022-11-20T12:26:45;9.70;66.40
11239;DHT22;5677;48.488;13.436;2022-11-20T12:29:21;9.70;65.10
11239;DHT22;5677;48.488;13.436;2022-11-20T12:32:01;9.70;64.80
11239;DHT22;5677;48.488;13.436;2022-11-20T12:34:47;9.70;65.00
11239;DHT22;5677;48.488;13.436;2022-11-20T12:37:28;9.70;65.40
11239;DHT22;5677;48.488;13.436;2022-11-20T12:40:02;9.70;65.50
11239;DHT22;5677;48.488;13.436;2022-11-20T12:42:52;9.70;66.50
11239;DHT22;5677;48.488;13.436;2022-11-20T12:46:15;9.70;65.20
11239;DHT22;5677;48.488;13.436;2022-11-20T12:49:08;9.70;64.80
11239;DHT22;5677;48.488;13.436;2022-11-20T12:51:51;9.70;64.90
11239;DHT22;5677;48.488;13.436;2022-11-20T12:54:41;9.70;65.00
11239;DHT22;5677;48.488;13.436;2022-11-20T12:57:18;9.70;65.00
11239;DHT22;5677;48.488;13.436;2022-11-20T13:00:01;9.70;65.50
11239;DHT22;5677;48.488;13.436;2022-11-20T13:02:36;9.70;65.20
11239;DHT22;5677;48.488;13.436;2022-11-20T13:05:18;9.70;66.40
11239;DHT22;5677;48.488;13.436;2022-11-20T13:07:47;9.70;65.10
11239;DHT22;5677;48.488;13.436;2022-11-20T13:10:18;9.70;64.70
11239;DHT22;5677;48.488;13.436;2022-11-20T13:12:50;9.70;64.90
11239;DHT22;5677;48.488;13.436;2022-11-20T13:15:32;9.70;65.50
11239;DHT22;5677;48.488;13.436;2022-11-20T13:18:03;9.70;66.30
11239;DHT22;5677;48.488;13.436;2022-11-20T13:20:31;9.70;66.70
11239;DHT22;5677;48.488;13.436;2022-11-20T13:23:00;9.70;65.20
11239;DHT22;5677;48.488;13.436;2022-11-20T13:25:28;9.70;65.10
11239;DHT22;5677;48.488;13.436;2022-11-20T13:27:58;9.70;65.00
11239;DHT22;5677;48.488;13.436;2022-11-20T13:30:27;9.70;65.30
11239;DHT22;5677;48.488;13.436;2022-11-20T13:32:55;9.70;65.60
11239;DHT22;5677;48.488;13.436;2022-11-20T13:35:28;9.70;65.70
11239;DHT22;5677;48.488;13.436;2022-11-20T13:38:06;9.70;66.20
11239;DHT22;5677;48.488;13.436;2022-11-20T13:40:35;9.70;65.50
11239;DHT22;5677;48.488;13.436;2022-11-20T13:43:11;9.70;66.50
11239;DHT22;5677;48.488;13.436;2022-11-20T13:45:41;9.70;65.40
11239;DHT22;5677;48.488;13.436;2022-11-20T13:48:20;9.70;64.80
11239;DHT22;5677;48.488;13.436;2022-11-20T13:50:57;9.70;65.00
11239;DHT22;5677;48.488;13.436;2022-11-20T13:53:36;9.70;65.10
11239;DHT22;5677;48.488;13.436;2022-11-20T13:56:14;9.70;65.30
11239;DHT22;5677;48.488;13.436;2022-11-20T13:58:51;9.70;65.50
11239;DHT22;5677;48.488;13.436;2022-11-20T14:01:23;9.70;65.60
11239;DHT22;5677;48.488;13.436;2022-11-20T14:03:50;9.70;66.20
11239;DHT22;5677;48.488;13.436;2022-11-20T14:06:25;9.70;66.60
11239;DHT22;5677;48.488;13.436;2022-11-20T14:08:53;9.70;66.50
11239;DHT22;5677;48.488;13.436;2022-11-20T14:11:22;9.70;65.80
11239;DHT22;5677;48.488;13.436;2022-11-20T14:14:02;9.70;64.70
11239;DHT22;5677;48.488;13.436;2022-11-20T14:16:31;9.70;64.50
11239;DHT22;5677;48.488;13.436;2022-11-20T14:19:25;9.70;64.50
11239;DHT22;5677;48.488;13.436;2022-11-20T14:21:54;9.70;64.40
11239;DHT22;5677;48.488;13.436;2022-11-20T14:24:32;9.70;64.60
11239;DHT22;5677;48.488;13.436;2022-11-20T14:26:59;9.70;64.60
11239;DHT22;5677;48.488;13.436;2022-11-20T14:29:29;9.70;64.50
11239;DHT22;5677;48.488;13.436;2022-11-20T14:31:59;9.70;64.50
11239;DHT22;5677;48.488;13.436;2022-11-20T14:34:30;9.70;64.60
11239;DHT22;5677;48.488;13.436;2022-11-20T14:36:59;9.70;64.50
11239;DHT22;5677;48.488;13.436;2022-11-20T14:39:30;9.70;64.50
11239;DHT22;5677;48.488;13.436;2022-11-20T14:41:57;9.70;64.50
11239;DHT22;5677;48.488;13.436;2022-11-20T14:44:29;9.70;64.60
11239;DHT22;5677;48.488;13.436;2022-11-20T14:46:57;9.70;64.70
11239;DHT22;5677;48.488;13.436;2022-11-20T14:49:25;9.70;64.70
11239;DHT22;5677;48.488;13.436;2022-11-20T14:51:59;9.70;64.70
11239;DHT22;5677;48.488;13.436;2022-11-20T14:54:26;9.70;64.80
11239;DHT22;5677;48.488;13.436;2022-11-20T14:56:54;9.70;64.80
11239;DHT22;5677;48.488;13.436;2022-11-20T14:59:23;9.70;64.60
11239;DHT22;5677;48.488;13.436;2022-11-20T15:01:57;9.70;64.70
11239;DHT22;5677;48.488;13.436;2022-11-20T15:04:24;9.70;64.80
11239;DHT22;5677;48.488;13.436;2022-11-20T15:06:53;9.70;64.90
11239;DHT22;5677;48.488;13.436;2022-11-20T15:09:21;9.70;65.00
11239;DHT22;5677;48.488;13.436;2022-11-20T15:11:54;9.70;65.20
11239;DHT22;5677;48.488;13.436;2022-11-20T15:14:21;9.70;65.10
11239;DHT22;5677;48.488;13.436;2022-11-20T15:16:48;9.70;66.20
11239;DHT22;5677;48.488;13.436;2022-11-20T15:19:20;9.70;65.50
11239;DHT22;5677;48.488;13.436;2022-11-20T15:21:47;9.70;65.50
11239;DHT22;5677;48.488;13.436;2022-11-20T15:24:14;9.70;65.30
11239;DHT22;5677;48.488;13.436;2022-11-20T15:26:41;9.70;66.50
11239;DHT22;5677;48.488;13.436;2022-11-20T15:29:10;9.70;64.30
11239;DHT22;5677;48.488;13.436;2022-11-20T15:31:37;9.70;64.50
11239;DHT22;5677;48.488;13.436;2022-11-20T15:34:09;9.70;64.50
11239;DHT22;5677;48.488;13.436;2022-11-20T15:36:38;9.70;64.70
11239;DHT22;5677;48.488;13.436;2022-11-20T15:39:05;9.70;65.00
11239;DHT22;5677;48.488;13.436;2022-11-20T15:41:33;9.70;65.70
11239;DHT22;5677;48.488;13.436;2022-11-20T15:44:00;9.70;65.50
11239;DHT22;5677;48.488;13.436;2022-11-20T15:46:29;9.70;65.70
11239;DHT22;5677;48.488;13.436;2022-11-20T15:48:56;9.70;65.50
11239;DHT22;5677;48.488;13.436;2022-11-20T15:51:27;9.70;65.60
11239;DHT22;5677;48.488;13.436;2022-11-20T15:53:56;9.70;65.10
11239;DHT22;5677;48.488;13.436;2022-11-20T15:56:23;9.70;64.50
11239;DHT22;5677;48.488;13.436;2022-11-20T15:58:50;9.70;64.50
11239;DHT22;5677;48.488;13.436;2022-11-20T16:01:18;9.70;64.70
11239;DHT22;5677;48.488;13.436;2022-11-20T16:03:46;9.70;64.80
11239;DHT22;5677;48.488;13.436;2022-11-20T16:06:12;9.70;65.20